Time;durP1;ratioP1;P1;durP2;ratioP2;P2;SDS_P1;SDS_P2;PMS_P1;PMS_P2;Temp;Humidity;BMP_temperature;BMP_pressure;BME280_temperature;BME280_humidity;BME280_pressure;Samples;Min_cycle;Max_cycle;Signal;HPM_P1;HPM_P2
2021/06/29 00:02:23;;;;;;;0.00;0.00;;;;;;;24.60;61.87;99081.81;5090521;28;20031;-81
2021/06/29 00:04:50;;;;;;;0.10;0.10;;;;;;;24.60;61.54;99079.06;5069109;28;20546;-81
2021/06/29 00:07:16;;;;;;;0.00;0.00;;;;;;;24.57;61.30;99088.00;5070189;28;20075;-80
2021/06/29 00:09:41;;;;;;;0.10;0.10;;;;;;;24.55;61.33;99073.94;5064516;28;20051;-80
2021/06/29 00:12:08;;;;;;;0.00;0.00;;;;;;;24.53;61.21;99079.75;5073223;28;20039;-80
2021/06/29 00:14:33;;;;;;;0.00;0.00;;;;;;;24.51;61.51;99075.81;5089303;28;20028;-79
2021/06/29 00:16:59;;;;;;;0.00;0.00;;;;;;;24.50;61.25;99079.69;5072081;28;20024;-78
2021/06/29 00:19:24;;;;;;;0.00;0.00;;;;;;;24.48;61.41;99074.59;5073156;28;20016;-78
2021/06/29 00:21:50;;;;;;;0.00;0.00;;;;;;;24.48;61.22;99068.38;5072971;28;20119;-79
2021/06/29 00:24:16;;;;;;;0.00;0.00;;;;;;;24.45;61.17;99072.63;5073043;28;20024;-79
2021/06/29 00:26:42;;;;;;;0.10;0.10;;;;;;;24.42;61.13;99065.94;5073214;28;20438;-79
2021/06/29 00:29:07;;;;;;;0.00;0.00;;;;;;;24.41;61.06;99061.66;5089646;28;20031;-81
2021/06/29 00:31:33;;;;;;;0.10;0.10;;;;;;;24.39;61.16;99063.94;5089796;28;20032;-79
2021/06/29 00:33:58;;;;;;;0.00;0.00;;;;;;;24.37;61.13;99065.47;5072972;28;20020;-82
2021/06/29 00:36:23;;;;;;;0.10;0.10;;;;;;;24.34;61.18;99066.19;5073015;28;20494;-79
2021/06/29 00:38:49;;;;;;;0.00;0.00;;;;;;;24.26;60.98;99057.13;5089356;28;20031;-78
2021/06/29 00:41:14;;;;;;;0.00;0.00;;;;;;;24.22;61.09;99059.03;5073005;28;20483;-79
2021/06/29 00:43:48;;;;;;;0.00;0.00;;;;;;;24.14;61.22;99069.84;5089762;28;20028;-82
2021/06/29 00:46:15;;;;;;;0.20;0.20;;;;;;;24.06;61.80;99070.06;5089655;28;20024;-80
2021/06/29 00:48:40;;;;;;;0.00;0.00;;;;;;;24.02;61.54;99069.25;5089789;28;20078;-77
2021/06/29 00:51:06;;;;;;;0.10;0.10;;;;;;;23.96;61.75;99066.00;5090844;28;20028;-77
2021/06/29 00:53:32;;;;;;;0.10;0.10;;;;;;;23.91;61.60;99064.38;5089631;28;20059;-80
2021/06/29 00:55:57;;;;;;;0.00;0.00;;;;;;;23.87;61.74;99065.47;5072575;28;20479;-77
2021/06/29 00:58:23;;;;;;;0.03;0.03;;;;;;;23.79;61.90;99057.16;5072682;28;20024;-76
2021/06/29 01:00:50;;;;;;;0.00;0.00;;;;;;;23.75;62.20;99056.28;5072404;28;20027;-79
2021/06/29 01:03:16;;;;;;;0.00;0.00;;;;;;;23.71;62.38;99049.22;5072736;28;20122;-78
2021/06/29 01:05:43;;;;;;;0.10;0.10;;;;;;;23.65;62.63;99057.69;5072756;28;20066;-77
2021/06/29 01:08:08;;;;;;;0.00;0.00;;;;;;;23.63;62.79;99048.28;5089493;28;20036;-78
2021/06/29 01:10:33;;;;;;;0.00;0.00;;;;;;;23.61;62.78;99053.34;5072706;28;20402;-75
2021/06/29 01:12:59;;;;;;;0.00;0.00;;;;;;;23.58;62.86;99046.66;5089341;28;20158;-75
2021/06/29 01:15:24;;;;;;;0.00;0.00;;;;;;;23.53;63.02;99048.91;5090796;28;20016;-75
2021/06/29 01:17:55;;;;;;;0.00;0.00;;;;;;;23.48;63.17;99060.91;5090472;28;20070;-75
2021/06/29 01:20:30;;;;;;;0.00;0.00;;;;;;;23.45;63.11;99050.72;5091127;28;20092;-76
2021/06/29 01:23:01;;;;;;;0.00;0.00;;;;;;;23.37;63.24;99057.97;5093208;28;20139;-75
2021/06/29 01:25:29;;;;;;;0.10;0.10;;;;;;;23.29;63.31;99053.53;5094465;28;20055;-75
2021/06/29 01:28:20;;;;;;;0.00;0.00;;;;;;;23.19;63.67;99054.91;5094231;28;20058;-77
2021/06/29 01:33:28;;;;;;;0.05;0.05;;;;;;;23.00;64.41;99053.75;5094412;28;20118;-75
2021/06/29 01:35:54;;;;;;;0.10;0.10;;;;;;;22.92;64.77;99048.50;5076007;28;20055;-75
2021/06/29 01:38:21;;;;;;;0.10;0.10;;;;;;;22.85;64.87;99055.41;5093097;28;20093;-76
2021/06/29 01:40:47;;;;;;;0.05;0.05;;;;;;;22.83;65.06;99063.13;5094233;28;20515;-76
2021/06/29 01:43:13;;;;;;;0.05;0.05;;;;;;;22.81;65.41;99060.00;5094262;28;20039;-76
2021/06/29 01:45:42;;;;;;;0.00;0.00;;;;;;;22.78;65.60;99063.44;5094190;28;20054;-76
2021/06/29 01:48:18;;;;;;;0.10;0.10;;;;;;;22.74;65.63;99065.31;5093842;28;20490;-76
2021/06/29 01:50:43;;;;;;;0.00;0.00;;;;;;;22.74;65.83;99070.75;5094303;28;20031;-77
2021/06/29 01:53:08;;;;;;;0.10;0.10;;;;;;;22.74;66.08;99067.22;5075765;28;20024;-76
2021/06/29 01:55:34;;;;;;;0.08;0.08;;;;;;;22.74;66.11;99075.41;5093936;28;20024;-79
2021/06/29 01:58:00;;;;;;;0.08;0.08;;;;;;;22.74;66.44;99069.94;5075764;28;20032;-81
2021/06/29 02:00:25;;;;;;;0.00;0.00;;;;;;;22.73;66.31;99073.81;5075520;28;20024;-78
2021/06/29 02:02:51;;;;;;;0.10;0.10;;;;;;;22.73;66.24;99074.63;5075408;28;20494;-79
2021/06/29 02:05:16;;;;;;;0.00;0.00;;;;;;;22.73;65.90;99073.81;5075408;28;20028;-79
2021/06/29 02:07:42;;;;;;;0.10;0.10;;;;;;;22.73;65.96;99080.06;5092323;28;20077;-80
2021/06/29 02:10:08;;;;;;;0.00;0.00;;;;;;;22.75;65.87;99077.00;5075171;28;20039;-79
2021/06/29 02:12:34;;;;;;;0.00;0.00;;;;;;;22.71;65.86;99072.22;5092062;28;20043;-79
2021/06/29 02:14:59;;;;;;;0.08;0.08;;;;;;;22.72;65.81;99075.75;5091567;28;20484;-80
2021/06/29 02:17:24;;;;;;;0.00;0.00;;;;;;;22.71;65.77;99080.41;5075321;28;20124;-84
2021/06/29 02:19:50;;;;;;;0.00;0.00;;;;;;;22.71;65.88;99080.41;5074825;28;20027;-81
2021/06/29 02:22:15;;;;;;;0.00;0.00;;;;;;;22.71;66.02;99077.69;5075169;28;20024;-82
2021/06/29 02:24:41;;;;;;;0.10;0.10;;;;;;;22.68;66.33;99081.13;5091684;28;20059;-81
2021/06/29 02:27:06;;;;;;;0.00;0.00;;;;;;;22.68;66.28;99083.09;5074961;28;20024;-80
2021/06/29 02:29:32;;;;;;;0.00;0.00;;;;;;;22.64;66.60;99079.47;5092135;28;20035;-82
2021/06/29 02:31:57;;;;;;;0.00;0.00;;;;;;;22.61;67.00;99080.97;5091413;28;20093;-80
2021/06/29 02:34:23;;;;;;;0.00;0.00;;;;;;;22.60;67.75;99081.34;5091687;28;20426;-80
2021/06/29 02:36:48;;;;;;;0.00;0.00;;;;;;;22.55;67.97;99074.22;5091886;28;20073;-80
2021/06/29 02:39:14;;;;;;;0.10;0.10;;;;;;;22.56;67.76;99078.53;5091543;28;20376;-80
2021/06/29 02:41:39;;;;;;;0.10;0.10;;;;;;;22.54;67.70;99073.47;5075194;28;20469;-80
2021/06/29 02:44:04;;;;;;;0.05;0.05;;;;;;;22.56;67.22;99070.38;5074839;28;20489;-81
2021/06/29 02:46:30;;;;;;;0.10;0.10;;;;;;;22.55;67.03;99074.22;5092823;28;20534;-81
2021/06/29 02:48:57;;;;;;;0.00;0.00;;;;;;;22.55;66.61;99083.19;5092728;28;20028;-81
2021/06/29 02:51:23;;;;;;;0.00;0.00;;;;;;;22.56;66.21;99081.28;5074805;28;20028;-78
2021/06/29 02:53:49;;;;;;;0.10;0.10;;;;;;;22.57;65.80;99084.78;5091476;28;20031;-77
2021/06/29 02:58:58;;;;;;;0.00;0.00;;;;;;;22.60;65.06;99087.56;5092686;28;20075;-80
2021/06/29 03:01:23;;;;;;;0.00;0.00;;;;;;;22.64;64.74;99084.94;5091552;28;20059;-77
2021/06/29 03:03:49;;;;;;;0.10;0.10;;;;;;;22.71;64.56;99085.09;5074753;28;20406;-77
2021/06/29 03:06:15;;;;;;;0.10;0.10;;;;;;;22.78;64.43;99082.50;5092459;28;20036;-78
2021/06/29 03:08:40;;;;;;;0.00;0.00;;;;;;;22.81;64.34;99083.72;5074665;28;20501;-77
2021/06/29 03:11:06;;;;;;;0.00;0.00;;;;;;;22.82;64.38;99082.59;5074376;28;20115;-77
2021/06/29 03:13:31;;;;;;;0.00;0.00;;;;;;;22.82;64.81;99085.31;5091314;28;20399;-77
2021/06/29 03:15:57;;;;;;;0.00;0.00;;;;;;;22.82;65.27;99083.38;5074096;28;20028;-78
2021/06/29 03:18:23;;;;;;;0.08;0.08;;;;;;;22.84;65.86;99085.75;5074532;28;20502;-79
2021/06/29 03:20:50;;;;;;;0.03;0.03;;;;;;;22.84;66.63;99080.31;5090889;28;20024;-79
2021/06/29 03:23:15;;;;;;;0.10;0.10;;;;;;;22.85;66.89;99077.22;5073958;28;20031;-79
2021/06/29 03:25:41;;;;;;;0.00;0.00;;;;;;;22.93;66.87;99063.72;5074002;28;20052;-78
2021/06/29 03:28:06;;;;;;;0.00;0.00;;;;;;;23.16;66.96;99080.16;5073908;28;20023;-78
2021/06/29 03:30:32;;;;;;;0.00;0.00;;;;;;;23.40;66.75;99081.81;5091054;28;20387;-78
2021/06/29 03:32:57;;;;;;;0.00;0.00;;;;;;;23.70;66.56;99078.44;5073945;28;20517;-78
2021/06/29 03:35:23;;;;;;;0.10;0.10;;;;;;;24.08;65.15;99084.16;5090761;28;20024;-76
2021/06/29 03:37:48;;;;;;;0.00;0.00;;;;;;;24.46;63.48;99083.19;5091934;28;20016;-77
2021/06/29 03:40:15;;;;;;;0.10;0.10;;;;;;;24.84;62.53;99080.59;5091936;28;20114;-77
2021/06/29 03:42:40;;;;;;;0.10;0.10;;;;;;;25.20;60.57;99080.22;5073721;28;20085;-77
2021/06/29 03:45:06;;;;;;;0.17;0.17;;;;;;;25.56;58.79;99073.19;5073249;28;20193;-77
2021/06/29 03:47:32;;;;;;;0.00;0.00;;;;;;;25.93;57.46;99076.25;5073849;28;20637;-76
2021/06/29 03:50:00;;;;;;;0.00;0.00;;;;;;;26.31;56.53;99085.97;5091624;28;20030;-78
2021/06/29 03:52:26;;;;;;;0.00;0.00;;;;;;;26.63;56.62;99079.88;5076870;28;20036;-78
2021/06/29 03:54:52;;;;;;;0.00;0.00;;;;;;;26.93;56.00;99089.84;5090791;28;20058;-78
2021/06/29 03:57:17;;;;;;;0.00;0.00;;;;;;;27.22;55.54;99087.22;5090351;28;20106;-79
2021/06/29 03:59:43;;;;;;;0.08;0.08;;;;;;;27.53;55.05;99093.19;5090432;28;20028;-80
2021/06/29 04:02:08;;;;;;;0.00;0.00;;;;;;;27.77;54.31;99088.91;5073365;28;20670;-80
2021/06/29 04:04:34;;;;;;;0.00;0.00;;;;;;;28.02;54.00;99095.59;5072952;28;20039;-81
2021/06/29 04:07:02;;;;;;;0.00;0.00;;;;;;;28.22;53.36;99094.03;5089951;28;20031;-77
2021/06/29 04:09:27;;;;;;;0.00;0.00;;;;;;;28.46;52.88;99093.59;5090300;28;20407;-76
2021/06/29 04:11:53;;;;;;;0.00;0.00;;;;;;;28.74;52.41;99092.75;5091538;28;20020;-77
2021/06/29 04:14:18;;;;;;;0.00;0.00;;;;;;;29.01;51.64;99092.28;5089991;28;20145;-77
2021/06/29 04:16:44;;;;;;;0.00;0.00;;;;;;;29.21;51.36;99093.34;5091154;28;20030;-77
2021/06/29 04:19:09;;;;;;;0.00;0.00;;;;;;;29.49;50.64;99093.59;5088283;28;20031;-76
2021/06/29 04:21:34;;;;;;;0.00;0.00;;;;;;;29.67;49.94;99087.97;5080943;28;20027;-84
2021/06/29 04:24:05;;;;;;;0.00;0.00;;;;;;;29.94;49.55;99090.94;5062121;28;20024;-82
2021/06/29 04:26:31;;;;;;;0.00;0.00;;;;;;;30.25;49.19;99087.50;5067117;28;20056;-83
2021/06/29 04:28:56;;;;;;;0.45;0.32;;;;;;;30.43;48.50;99085.38;5074510;28;20166;-82
2021/06/29 04:31:21;;;;;;;0.00;0.00;;;;;;;30.62;48.45;99083.22;5090274;28;20028;-84
2021/06/29 04:33:47;;;;;;;0.00;0.00;;;;;;;30.93;47.81;99083.25;5073056;28;20059;-82
2021/06/29 04:36:13;;;;;;;0.00;0.00;;;;;;;31.26;47.54;99076.13;5072820;28;20032;-81
2021/06/29 04:38:39;;;;;;;0.00;0.00;;;;;;;31.63;46.74;99073.63;5073272;28;20027;-81
2021/06/29 04:41:05;;;;;;;0.00;0.00;;;;;;;31.89;45.83;99082.31;5090826;28;20028;-82
2021/06/29 04:43:30;;;;;;;0.00;0.00;;;;;;;32.18;45.07;99079.84;5089916;28;20024;-82
2021/06/29 04:45:56;;;;;;;0.00;0.00;;;;;;;32.46;44.87;99090.81;5091236;28;20028;-82
2021/06/29 04:48:21;;;;;;;0.00;0.00;;;;;;;32.73;43.66;99085.16;5089561;28;20060;-82
2021/06/29 04:50:47;;;;;;;0.05;0.05;;;;;;;32.94;43.40;99083.19;5072916;28;20039;-82
2021/06/29 04:53:12;;;;;;;0.00;0.00;;;;;;;33.28;42.29;99085.63;5072722;28;20024;-83
2021/06/29 04:55:38;;;;;;;0.00;0.00;;;;;;;33.35;41.73;99091.03;5075550;28;20028;-83
2021/06/29 04:58:04;;;;;;;0.10;0.10;;;;;;;33.59;40.07;99087.31;5093648;28;20049;-82
2021/06/29 05:00:29;;;;;;;0.10;0.10;;;;;;;33.59;40.92;99090.84;5094977;28;20031;-82
2021/06/29 05:02:55;;;;;;;0.10;0.10;;;;;;;33.80;39.95;99091.56;5093906;28;20115;-82
2021/06/29 05:05:21;;;;;;;0.80;0.65;;;;;;;33.92;39.81;99090.13;5076659;28;20051;-82
2021/06/29 05:07:48;;;;;;;0.00;0.00;;;;;;;34.15;39.11;99089.94;5094908;28;20475;-83
2021/06/29 05:10:14;;;;;;;0.13;0.13;;;;;;;34.32;39.14;99087.88;5093459;28;20032;-85
2021/06/29 05:12:40;;;;;;;0.00;0.00;;;;;;;34.57;38.33;99086.44;5093594;28;20411;-82
2021/06/29 05:15:08;;;;;;;0.00;0.00;;;;;;;34.79;37.99;99083.84;5076330;28;20402;-83
2021/06/29 05:17:34;;;;;;;0.30;0.30;;;;;;;34.90;37.52;99083.56;5093111;28;20039;-83
2021/06/29 05:20:00;;;;;;;0.00;0.00;;;;;;;34.80;38.08;99079.03;5095525;28;20024;-84
2021/06/29 05:22:25;;;;;;;0.35;0.35;;;;;;;34.76;37.97;99081.94;5077011;28;20046;-83
2021/06/29 05:24:51;;;;;;;0.38;0.38;;;;;;;34.60;38.73;99082.78;5094717;28;20055;-82
2021/06/29 05:27:16;;;;;;;0.00;0.00;;;;;;;34.67;38.64;99079.03;5076200;28;20020;-82
2021/06/29 05:29:42;;;;;;;0.95;0.63;;;;;;;34.76;38.66;99073.59;5076571;28;20036;-82
2021/06/29 05:32:08;;;;;;;0.10;0.10;;;;;;;35.01;38.11;99082.44;5094842;28;20119;-83
2021/06/29 05:34:34;;;;;;;0.03;0.03;;;;;;;35.27;37.77;99083.25;5094591;28;20376;-83
2021/06/29 05:36:59;;;;;;;0.05;0.05;;;;;;;35.57;37.35;99078.38;5094358;28;20185;-83
2021/06/29 05:39:25;;;;;;;0.00;0.00;;;;;;;35.82;36.28;99069.19;5092725;28;20219;-83
2021/06/29 05:41:50;;;;;;;0.10;0.10;;;;;;;35.82;36.61;99074.00;5094552;28;20035;-83
2021/06/29 05:44:16;;;;;;;0.00;0.00;;;;;;;36.00;36.32;99074.19;5075452;28;20036;-83
2021/06/29 05:46:41;;;;;;;0.20;0.20;;;;;;;36.10;36.14;99075.06;5076017;28;20028;-82
2021/06/29 05:49:12;;;;;;;0.00;0.00;;;;;;;36.23;35.66;99069.44;5093738;28;20463;-82
2021/06/29 05:51:44;;;;;;;0.10;0.10;;;;;;;36.31;35.69;99067.94;5092874;28;20035;-83
2021/06/29 05:54:10;;;;;;;0.05;0.05;;;;;;;36.49;35.61;99081.25;5094011;28;20463;-83
2021/06/29 05:56:35;;;;;;;0.03;0.03;;;;;;;36.75;35.15;99083.13;5092839;28;20050;-83
2021/06/29 05:59:01;;;;;;;0.05;0.05;;;;;;;36.95;34.40;99077.22;5075673;28;20076;-83
2021/06/29 06:01:26;;;;;;;0.00;0.00;;;;;;;37.16;34.20;99087.56;5093798;28;20402;-83
2021/06/29 06:03:51;;;;;;;0.13;0.13;;;;;;;37.38;34.10;99072.00;5093068;28;20020;-83
2021/06/29 06:06:17;;;;;;;0.00;0.00;;;;;;;37.51;33.33;99081.03;5074944;28;20559;-83
2021/06/29 06:08:42;;;;;;;0.10;0.10;;;;;;;37.37;33.46;99082.41;5094372;28;20035;-83
2021/06/29 06:11:08;;;;;;;0.07;0.07;;;;;;;37.19;34.03;99091.44;5094049;28;20086;-83
2021/06/29 06:13:33;;;;;;;0.10;0.10;;;;;;;37.24;34.08;99082.47;5075708;28;20055;-83
2021/06/29 06:16:00;;;;;;;0.17;0.17;;;;;;;37.32;34.33;99082.97;5075417;28;20028;-83
2021/06/29 06:18:26;;;;;;;0.20;0.20;;;;;;;37.36;34.06;99082.88;5075877;28;20577;-82
2021/06/29 06:20:51;;;;;;;0.00;0.00;;;;;;;37.29;34.38;99081.88;5092664;28;20103;-82
2021/06/29 06:23:17;;;;;;;0.00;0.00;;;;;;;37.21;34.46;99083.41;5075390;28;20371;-82
2021/06/29 06:25:42;;;;;;;0.10;0.10;;;;;;;37.09;34.83;99075.91;5080447;28;20094;-83
2021/06/29 06:28:08;;;;;;;0.20;0.13;;;;;;;37.00;34.98;99073.88;5055182;28;20056;-82
2021/06/29 06:30:34;;;;;;;0.13;0.13;;;;;;;36.65;35.23;99082.31;5073804;28;20035;-82
2021/06/29 06:32:59;;;;;;;0.10;0.10;;;;;;;36.50;35.21;99074.47;5055425;28;20025;-81
2021/06/29 06:35:25;;;;;;;0.10;0.10;;;;;;;36.30;36.49;99071.97;5072032;28;20025;-82
2021/06/29 06:37:50;;;;;;;0.30;0.30;;;;;;;36.07;36.43;99070.38;5072131;28;20166;-82
2021/06/29 06:40:16;;;;;;;0.10;0.10;;;;;;;36.00;36.87;99068.63;5055136;28;20027;-82
2021/06/29 06:42:42;;;;;;;0.20;0.20;;;;;;;35.89;37.02;99063.44;5071813;28;20498;-82
2021/06/29 06:45:08;;;;;;;0.00;0.00;;;;;;;35.86;36.63;99072.63;5071198;28;20035;-82
2021/06/29 06:47:34;;;;;;;;;;;;;;;35.69;37.05;99077.59;5071719;28;20119;-82
2021/06/29 06:50:00;;;;;;;0.30;0.30;;;;;;;35.67;36.61;99074.47;5054666;28;19955;-82
2021/06/29 06:52:25;;;;;;;0.20;0.20;;;;;;;35.53;36.92;99077.72;5071153;28;20109;-83
2021/06/29 06:54:50;;;;;;;1.20;1.20;;;;;;;35.52;37.65;99088.06;5072299;28;20075;-83
2021/06/29 06:57:16;;;;;;;0.00;0.00;;;;;;;35.45;37.54;99081.94;5072402;28;20089;-83
2021/06/29 06:59:41;;;;;;;0.38;0.38;;;;;;;35.16;37.08;99082.81;5071103;28;20078;-82
2021/06/29 07:02:07;;;;;;;0.45;0.38;;;;;;;34.91;37.96;99084.31;5071866;28;20020;-83
2021/06/29 07:04:33;;;;;;;0.20;0.20;;;;;;;34.86;38.38;99079.28;5054462;28;20029;-83
2021/06/29 07:06:58;;;;;;;0.20;0.20;;;;;;;34.73;38.74;99076.47;5072573;28;20036;-83
2021/06/29 07:09:23;;;;;;;0.70;0.70;;;;;;;34.59;38.36;99075.66;5054122;28;20040;-82
2021/06/29 07:11:50;;;;;;;0.00;0.00;;;;;;;34.52;38.68;99075.88;5054382;28;20139;-82
2021/06/29 07:14:16;;;;;;;0.27;0.27;;;;;;;34.42;38.67;99071.41;5070578;28;20111;-83
2021/06/29 07:16:42;;;;;;;0.00;0.00;;;;;;;34.24;38.90;99069.88;5054087;28;20491;-82
2021/06/29 07:19:07;;;;;;;0.03;0.03;;;;;;;34.04;39.40;99067.22;5070699;28;20028;-82
2021/06/29 07:21:33;;;;;;;0.05;0.05;;;;;;;33.93;40.03;99066.72;5054094;28;20028;-82
2021/06/29 07:23:59;;;;;;;0.10;0.10;;;;;;;33.63;39.77;99079.69;5070604;28;20024;-85
2021/06/29 07:26:24;;;;;;;0.52;0.52;;;;;;;33.30;40.55;99074.91;5104760;28;20040;-85
2021/06/29 07:28:50;;;;;;;0.10;0.10;;;;;;;33.12;41.82;99069.72;5092004;28;20039;-83
2021/06/29 07:31:19;;;;;;;0.20;0.20;;;;;;;33.05;41.93;99072.66;5073325;28;20128;-83
2021/06/29 07:33:48;;;;;;;0.10;0.10;;;;;;;32.94;42.20;99072.13;5092074;28;20024;-83
2021/06/29 07:36:16;;;;;;;0.28;0.28;;;;;;;32.89;42.28;99071.41;5090480;28;20390;-83
2021/06/29 07:38:42;;;;;;;0.13;0.13;;;;;;;32.78;41.97;99075.63;5073780;28;20185;-82
2021/06/29 07:41:08;;;;;;;0.30;0.13;;;;;;;32.62;42.54;99076.28;5091328;28;20036;-85
2021/06/29 07:43:33;;;;;;;4.95;0.65;;;;;;;32.39;42.98;99077.91;5107418;28;20028;-83
2021/06/29 07:45:59;;;;;;;1.00;0.80;;;;;;;32.19;43.51;99075.88;5107235;28;20157;-84
2021/06/29 07:48:25;;;;;;;0.20;0.20;;;;;;;32.01;44.12;99083.72;5107264;28;20027;-83
2021/06/29 07:50:51;;;;;;;0.47;0.47;;;;;;;31.80;44.05;99074.56;5107269;28;20036;-84
2021/06/29 07:53:16;;;;;;;0.28;0.28;;;;;;;31.70;44.49;99076.31;5089983;28;20024;-85
2021/06/29 07:55:42;;;;;;;0.20;0.20;;;;;;;31.54;44.51;99081.66;5091711;28;20162;-84
2021/06/29 07:58:07;;;;;;;1.60;0.73;;;;;;;31.36;44.99;99076.38;5107601;28;20489;-84
2021/06/29 08:00:36;;;;;;;0.90;0.90;;;;;;;31.22;45.39;99069.09;5107656;28;20034;-83
2021/06/29 08:03:02;;;;;;;0.10;0.10;;;;;;;31.10;45.75;99073.19;5107391;28;20553;-84
2021/06/29 08:05:27;;;;;;;0.30;0.30;;;;;;;31.10;46.39;99074.00;5106850;28;20032;-83
2021/06/29 08:07:53;;;;;;;0.90;0.68;;;;;;;31.17;46.13;99075.09;5091543;28;20016;-83
2021/06/29 08:10:19;;;;;;;0.10;0.10;;;;;;;31.18;45.63;99071.13;5107164;28;20104;-86
2021/06/29 08:12:44;;;;;;;2.63;0.63;;;;;;;31.14;45.55;99071.97;5090118;28;20054;-85
2021/06/29 08:15:11;;;;;;;2.40;0.95;;;;;;;31.07;45.48;99077.53;5091459;28;20024;-84
2021/06/29 08:17:37;;;;;;;1.08;0.50;;;;;;;30.94;44.95;99079.28;5090123;28;20471;-84
2021/06/29 08:20:03;;;;;;;0.65;0.50;;;;;;;30.84;45.80;99074.69;5090996;28;20036;-84
2021/06/29 08:22:29;;;;;;;2.33;0.77;;;;;;;30.76;46.20;99065.72;5072884;28;20032;-84
2021/06/29 08:24:54;;;;;;;0.35;0.35;;;;;;;30.74;45.51;99065.34;5097051;28;20424;-84
2021/06/29 08:27:20;;;;;;;0.22;0.22;;;;;;;30.65;45.15;99057.56;5053041;28;20391;-85
2021/06/29 08:29:47;;;;;;;0.25;0.25;;;;;;;30.63;45.66;99059.97;5052603;28;20463;-83
2021/06/29 08:32:13;;;;;;;0.30;0.30;;;;;;;30.64;45.58;99059.53;5069637;28;20499;-83
2021/06/29 08:34:39;;;;;;;0.28;0.20;;;;;;;30.66;46.19;99057.16;5052955;28;20032;-84
2021/06/29 08:37:05;;;;;;;0.32;0.25;;;;;;;30.68;45.21;99056.75;5052838;28;20028;-84
2021/06/29 08:39:30;;;;;;;0.20;0.10;;;;;;;30.72;45.39;99046.44;5052679;28;20102;-83
2021/06/29 08:41:56;;;;;;;0.20;0.20;;;;;;;30.69;45.51;99041.75;5070962;28;20029;-84
2021/06/29 08:44:22;;;;;;;0.25;0.20;;;;;;;30.62;45.25;99042.59;5052741;28;20028;-83
2021/06/29 08:46:47;;;;;;;0.98;0.55;;;;;;;30.63;45.78;99037.88;5069625;28;20021;-82
2021/06/29 08:49:12;;;;;;;1.63;0.73;;;;;;;30.59;45.21;99037.13;5052783;28;20476;-82
2021/06/29 08:51:39;;;;;;;0.28;0.28;;;;;;;30.61;44.63;99038.28;5052926;28;20535;-85
2021/06/29 08:54:05;;;;;;;0.45;0.45;;;;;;;30.63;45.33;99024.09;5069247;28;20029;-83
2021/06/29 08:56:32;;;;;;;0.35;0.35;;;;;;;30.62;44.76;99033.56;5070911;28;20381;-82
2021/06/29 08:58:59;;;;;;;0.17;0.17;;;;;;;30.57;44.67;99025.75;5070910;28;20025;-84
2021/06/29 09:01:29;;;;;;;0.10;0.10;;;;;;;30.63;45.15;99021.31;5069436;28;20036;-84
2021/06/29 09:03:56;;;;;;;1.45;0.52;;;;;;;30.69;44.82;99014.16;5052684;28;20035;-84
2021/06/29 09:06:36;;;;;;;0.13;0.13;;;;;;;30.70;44.48;99024.00;5052403;28;20031;-83
2021/06/29 09:09:21;;;;;;;0.22;0.20;;;;;;;30.76;44.31;99010.50;5052765;28;20637;-81
2021/06/29 09:11:46;;;;;;;0.28;0.28;;;;;;;30.80;44.79;99016.78;5069724;28;20029;-82
2021/06/29 09:14:15;;;;;;;1.85;1.15;;;;;;;30.78;44.47;99017.16;5070743;28;20430;-83
2021/06/29 09:16:42;;;;;;;0.20;0.20;;;;;;;30.72;45.06;99024.34;5069682;28;20124;-81
2021/06/29 09:19:08;;;;;;;0.10;0.10;;;;;;;30.62;44.57;99011.47;5070234;28;20020;-82
2021/06/29 09:21:36;;;;;;;0.40;0.40;;;;;;;30.62;45.61;99001.22;5070569;28;20480;-81
2021/06/29 09:24:03;;;;;;;1.10;1.05;;;;;;;30.59;45.08;99007.56;5069355;28;20025;-83
2021/06/29 09:26:29;;;;;;;0.57;0.57;;;;;;;30.60;45.37;99011.09;5052468;28;20137;-81
2021/06/29 09:29:03;;;;;;;1.02;0.40;;;;;;;30.59;45.03;99004.00;5069300;28;20033;-83
2021/06/29 09:31:31;;;;;;;0.30;0.30;;;;;;;30.61;45.43;98996.88;5069916;28;20095;-81
2021/06/29 09:34:03;;;;;;;0.47;0.47;;;;;;;30.69;45.11;99000.34;5070391;28;20406;-82
2021/06/29 09:36:31;;;;;;;0.13;0.13;;;;;;;30.73;44.97;98992.78;5069109;28;20036;-81
2021/06/29 09:39:00;;;;;;;0.35;0.35;;;;;;;30.74;45.28;98993.59;5069011;28;20047;-82
2021/06/29 09:41:29;;;;;;;0.25;0.17;;;;;;;30.82;45.73;98990.31;5070769;28;20025;-81
2021/06/29 09:44:02;;;;;;;0.30;0.30;;;;;;;30.94;45.06;98988.94;5074209;28;20471;-81
2021/06/29 09:46:27;;;;;;;0.10;0.10;;;;;;;31.07;44.17;98985.63;5055738;28;20082;-81
2021/06/29 09:48:56;;;;;;;0.32;0.32;;;;;;;31.14;43.76;98993.84;5055990;28;20032;-81
2021/06/29 09:51:28;;;;;;;0.28;0.28;;;;;;;31.19;44.45;98984.28;5073692;28;20617;-83
2021/06/29 09:54:04;;;;;;;0.40;0.40;;;;;;;31.27;43.71;98985.75;5074150;28;20044;-81
2021/06/29 09:56:40;;;;;;;0.00;0.00;;;;;;;31.34;44.14;98973.81;5072469;28;20020;-82
2021/06/29 09:59:16;;;;;;;0.32;0.32;;;;;;;31.40;43.16;98969.38;5073890;28;20025;-82
2021/06/29 10:01:42;;;;;;;0.15;0.15;;;;;;;31.51;43.62;98972.72;5072509;28;20024;-83
2021/06/29 10:04:08;;;;;;;0.20;0.20;;;;;;;31.50;42.25;98979.47;5073524;28;20021;-84
2021/06/29 10:06:35;;;;;;;2.28;1.15;;;;;;;31.40;41.82;98972.91;5073793;28;20191;-84
2021/06/29 10:09:07;;;;;;;1.35;1.08;;;;;;;31.33;42.77;98963.97;5072437;28;20403;-84
2021/06/29 10:11:38;;;;;;;0.65;0.65;;;;;;;31.22;41.82;98969.66;5072076;28;20040;-84
2021/06/29 10:14:06;;;;;;;0.25;0.25;;;;;;;31.13;42.46;98959.91;5073698;28;20025;-83
2021/06/29 10:16:32;;;;;;;0.17;0.17;;;;;;;31.09;41.73;98964.72;5073170;28;20035;-83
2021/06/29 10:21:27;;;;;;;0.30;0.30;;;;;;;31.18;41.65;98958.66;5073041;28;20052;-83
2021/06/29 10:23:55;;;;;;;0.45;0.45;;;;;;;31.25;41.86;98949.47;5073638;28;20089;-82
2021/06/29 10:26:21;;;;;;;0.17;0.10;;;;;;;31.36;40.98;98943.75;5071495;28;20504;-81
2021/06/29 10:28:48;;;;;;;0.77;0.33;;;;;;;31.44;40.76;98953.50;5055326;28;20115;-81
2021/06/29 10:31:20;;;;;;;0.00;0.00;;;;;;;31.50;39.94;98951.06;5073185;28;20035;-83
2021/06/29 10:33:48;;;;;;;0.13;0.13;;;;;;;31.41;39.68;98960.66;5073258;28;20029;-81
2021/06/29 10:36:14;;;;;;;0.40;0.40;;;;;;;31.33;40.04;98948.16;5055002;28;20024;-83
2021/06/29 10:38:39;;;;;;;1.30;0.85;;;;;;;31.29;40.10;98948.22;5071590;28;20377;-81
2021/06/29 10:41:05;;;;;;;0.10;0.10;;;;;;;31.28;40.03;98937.59;5054869;28;20020;-82
2021/06/29 10:43:35;;;;;;;0.40;0.40;;;;;;;31.25;40.32;98933.69;5072730;28;20032;-83
2021/06/29 10:46:01;;;;;;;2.67;0.80;;;;;;;31.18;39.48;98931.03;5071713;28;20570;-83
2021/06/29 10:48:28;;;;;;;0.73;0.47;;;;;;;31.20;39.23;98936.13;5054629;28;20024;-82
2021/06/29 10:50:55;;;;;;;2.08;0.65;;;;;;;31.16;39.16;98930.66;5071466;28;20406;-83
2021/06/29 10:53:36;;;;;;;;;;;;;;;31.19;38.59;98927.09;5072659;28;20028;-81
2021/06/29 10:56:08;;;;;;;0.45;0.20;;;;;;;31.20;37.96;98925.88;5071319;28;20434;-83
2021/06/29 10:58:36;;;;;;;0.30;0.30;;;;;;;31.25;38.55;98924.59;5072460;28;20035;-84
2021/06/29 11:01:34;;;;;;;0.40;0.40;;;;;;;31.30;39.52;98913.09;5071110;28;20480;-83
2021/06/29 11:04:05;;;;;;;0.60;0.60;;;;;;;31.34;38.55;98913.81;5010993;28;20083;-82
2021/06/29 11:06:33;;;;;;;0.20;0.20;;;;;;;31.39;39.36;98910.56;5070876;28;20024;-84
2021/06/29 11:09:00;;;;;;;0.38;0.38;;;;;;;31.34;37.70;98907.50;5071049;28;20035;-81
2021/06/29 11:11:29;;;;;;;0.47;0.43;;;;;;;31.32;38.74;98899.63;5071883;28;20569;-81
2021/06/29 11:13:55;;;;;;;0.43;0.43;;;;;;;31.29;38.67;98904.00;5072239;28;20052;-82
2021/06/29 11:16:54;;;;;;;0.10;0.10;;;;;;;31.39;39.10;98893.97;5071996;28;20056;-83
2021/06/29 11:19:21;;;;;;;0.35;0.13;;;;;;;31.41;39.34;98888.81;5071687;28;20028;-81
2021/06/29 11:21:47;;;;;;;0.00;0.00;;;;;;;31.50;37.86;98893.03;5072220;28;20450;-82
2021/06/29 11:24:34;;;;;;;0.70;0.40;;;;;;;31.60;37.47;98898.34;5072144;28;20115;-82
2021/06/29 11:27:00;;;;;;;0.28;0.28;;;;;;;31.61;37.22;98896.34;5092857;28;20028;-81
2021/06/29 11:29:41;;;;;;;0.05;0.05;;;;;;;31.64;37.09;98903.03;5073860;28;20024;-81
2021/06/29 11:32:26;;;;;;;0.05;0.05;;;;;;;31.61;36.75;98899.88;5092455;28;20061;-81
2021/06/29 11:34:52;;;;;;;0.20;0.20;;;;;;;31.61;36.84;98897.13;5090828;28;20647;-81
2021/06/29 11:37:17;;;;;;;0.10;0.10;;;;;;;31.60;37.22;98892.03;5090881;28;20106;-82
2021/06/29 11:39:43;;;;;;;0.00;0.00;;;;;;;31.64;37.48;98886.44;5090470;28;20580;-83
2021/06/29 11:42:20;;;;;;;0.20;0.20;;;;;;;31.67;38.46;98888.41;5090692;28;20041;-81